Aviation Digital Data Service (ADDS)

Output produced by TAFs form (0214 UTC 21 April 2018)
found at http://aviationweather.gov/adds/tafs/
 
METAR text: ROYN 210200Z AUTO 12008KT 090V160 9999 SCT011 BKN013 BKN017 25/22 Q1015
Conditions at: ROYN (YONAGUNI AIRPORT, JP) observed 0200 UTC 21 April 2018
Temperature: 25.0°C (77°F)
Dewpoint: 22.0°C (72°F) [RH = 83%]
Pressure (altimeter): 29.97 inches Hg (1015.0 mb)
Winds: from the ESE (120 degrees) at 9 MPH (8 knots; 4.2 m/s)
Visibility: 6 or more miles (10+ km)
Ceiling: 1300 feet AGL
Clouds: scattered clouds at 1100 feet AGL
broken clouds at 1300 feet AGL
broken clouds at 1700 feet AGL
Weather: no significant weather observed at this time